sensor_id;sensor_type;location;lat;lon;timestamp;temperature;humidity
12700;DHT22;6414;49.570;6.060;2024-03-17T00:01:11;7.10;99.90
12700;DHT22;6414;49.570;6.060;2024-03-17T00:03:57;7.10;99.90
12700;DHT22;6414;49.570;6.060;2024-03-17T00:06:43;7.10;99.90
12700;DHT22;6414;49.570;6.060;2024-03-17T00:09:29;7.10;99.90
12700;DHT22;6414;49.570;6.060;2024-03-17T00:12:15;7.00;99.90
12700;DHT22;6414;49.570;6.060;2024-03-17T00:15:01;6.90;99.90
12700;DHT22;6414;49.570;6.060;2024-03-17T00:17:46;7.00;99.90
12700;DHT22;6414;49.570;6.060;2024-03-17T00:20:32;6.90;99.90
12700;DHT22;6414;49.570;6.060;2024-03-17T00:23:19;6.90;99.90
12700;DHT22;6414;49.570;6.060;2024-03-17T00:26:05;6.90;99.90
12700;DHT22;6414;49.570;6.060;2024-03-17T00:28:51;6.90;99.90
12700;DHT22;6414;49.570;6.060;2024-03-17T00:31:37;6.90;99.90
12700;DHT22;6414;49.570;6.060;2024-03-17T00:34:22;6.90;99.90
12700;DHT22;6414;49.570;6.060;2024-03-17T00:37:09;6.90;99.90
12700;DHT22;6414;49.570;6.060;2024-03-17T00:39:55;6.80;99.90
12700;DHT22;6414;49.570;6.060;2024-03-17T00:42:41;6.70;99.90
12700;DHT22;6414;49.570;6.060;2024-03-17T00:45:28;6.60;99.90
12700;DHT22;6414;49.570;6.060;2024-03-17T00:48:13;6.60;99.90
12700;DHT22;6414;49.570;6.060;2024-03-17T00:51:00;6.50;99.90
12700;DHT22;6414;49.570;6.060;2024-03-17T00:53:47;6.50;99.90
12700;DHT22;6414;49.570;6.060;2024-03-17T00:56:33;6.50;99.90
12700;DHT22;6414;49.570;6.060;2024-03-17T00:59:19;6.50;99.90
12700;DHT22;6414;49.570;6.060;2024-03-17T01:02:05;6.40;99.90
12700;DHT22;6414;49.570;6.060;2024-03-17T01:04:51;6.40;99.90
12700;DHT22;6414;49.570;6.060;2024-03-17T01:07:36;6.30;99.90
12700;DHT22;6414;49.570;6.060;2024-03-17T01:10:22;6.30;99.90
12700;DHT22;6414;49.570;6.060;2024-03-17T01:13:09;6.20;99.90
12700;DHT22;6414;49.570;6.060;2024-03-17T01:15:55;6.20;99.90
12700;DHT22;6414;49.570;6.060;2024-03-17T01:18:40;6.00;99.90
12700;DHT22;6414;49.570;6.060;2024-03-17T01:21:26;6.00;99.90
12700;DHT22;6414;49.570;6.060;2024-03-17T01:24:13;5.90;99.90
12700;DHT22;6414;49.570;6.060;2024-03-17T01:27:00;5.70;99.90
12700;DHT22;6414;49.570;6.060;2024-03-17T01:29:46;5.70;99.90
12700;DHT22;6414;49.570;6.060;2024-03-17T01:32:32;5.70;99.90
12700;DHT22;6414;49.570;6.060;2024-03-17T01:35:18;5.70;99.90
12700;DHT22;6414;49.570;6.060;2024-03-17T01:38:04;5.80;99.90
12700;DHT22;6414;49.570;6.060;2024-03-17T01:40:50;5.80;99.90
12700;DHT22;6414;49.570;6.060;2024-03-17T01:43:37;5.80;99.90
12700;DHT22;6414;49.570;6.060;2024-03-17T01:46:23;5.80;99.90
12700;DHT22;6414;49.570;6.060;2024-03-17T01:49:09;5.60;99.90
12700;DHT22;6414;49.570;6.060;2024-03-17T01:51:55;5.70;99.90
12700;DHT22;6414;49.570;6.060;2024-03-17T01:54:41;5.60;99.90
12700;DHT22;6414;49.570;6.060;2024-03-17T01:57:27;5.60;99.90
12700;DHT22;6414;49.570;6.060;2024-03-17T02:00:13;5.60;99.90
12700;DHT22;6414;49.570;6.060;2024-03-17T02:02:59;5.60;99.90
12700;DHT22;6414;49.570;6.060;2024-03-17T02:05:45;5.50;99.90
12700;DHT22;6414;49.570;6.060;2024-03-17T02:08:45;5.40;99.90
12700;DHT22;6414;49.570;6.060;2024-03-17T02:11:31;5.50;99.90
12700;DHT22;6414;49.570;6.060;2024-03-17T02:14:16;5.50;99.90
12700;DHT22;6414;49.570;6.060;2024-03-17T02:17:02;5.50;99.90
12700;DHT22;6414;49.570;6.060;2024-03-17T02:19:48;5.50;99.90
12700;DHT22;6414;49.570;6.060;2024-03-17T02:22:40;5.50;99.90
12700;DHT22;6414;49.570;6.060;2024-03-17T02:25:26;5.50;99.90
12700;DHT22;6414;49.570;6.060;2024-03-17T02:28:12;5.30;99.90
12700;DHT22;6414;49.570;6.060;2024-03-17T02:30:58;5.30;99.90
12700;DHT22;6414;49.570;6.060;2024-03-17T02:33:45;5.20;99.90
12700;DHT22;6414;49.570;6.060;2024-03-17T02:36:31;5.20;99.90
12700;DHT22;6414;49.570;6.060;2024-03-17T02:39:17;5.10;99.90
12700;DHT22;6414;49.570;6.060;2024-03-17T02:42:18;5.00;99.90
12700;DHT22;6414;49.570;6.060;2024-03-17T02:45:04;4.80;99.90
12700;DHT22;6414;49.570;6.060;2024-03-17T02:47:50;4.80;99.90
12700;DHT22;6414;49.570;6.060;2024-03-17T02:50:36;4.90;99.90
12700;DHT22;6414;49.570;6.060;2024-03-17T02:53:22;4.90;99.90
12700;DHT22;6414;49.570;6.060;2024-03-17T02:56:09;4.90;99.90
12700;DHT22;6414;49.570;6.060;2024-03-17T02:58:54;4.80;99.90
12700;DHT22;6414;49.570;6.060;2024-03-17T03:01:40;4.80;99.90
12700;DHT22;6414;49.570;6.060;2024-03-17T03:04:27;4.70;99.90
12700;DHT22;6414;49.570;6.060;2024-03-17T03:07:14;4.60;99.90
12700;DHT22;6414;49.570;6.060;2024-03-17T03:09:59;4.60;99.90
12700;DHT22;6414;49.570;6.060;2024-03-17T03:12:45;4.60;99.90
12700;DHT22;6414;49.570;6.060;2024-03-17T03:15:31;4.60;99.90
12700;DHT22;6414;49.570;6.060;2024-03-17T03:18:18;4.70;99.90
12700;DHT22;6414;49.570;6.060;2024-03-17T03:21:05;4.70;99.90
12700;DHT22;6414;49.570;6.060;2024-03-17T03:23:51;4.70;99.90
12700;DHT22;6414;49.570;6.060;2024-03-17T03:26:36;4.80;99.90
12700;DHT22;6414;49.570;6.060;2024-03-17T03:29:22;4.70;99.90
12700;DHT22;6414;49.570;6.060;2024-03-17T03:32:08;4.70;99.90
12700;DHT22;6414;49.570;6.060;2024-03-17T03:34:54;4.60;99.90
12700;DHT22;6414;49.570;6.060;2024-03-17T03:37:41;4.70;99.90
12700;DHT22;6414;49.570;6.060;2024-03-17T03:40:26;4.70;99.90
12700;DHT22;6414;49.570;6.060;2024-03-17T03:43:13;4.70;99.90
12700;DHT22;6414;49.570;6.060;2024-03-17T03:46:00;4.70;99.90
12700;DHT22;6414;49.570;6.060;2024-03-17T03:48:46;4.80;99.90
12700;DHT22;6414;49.570;6.060;2024-03-17T03:51:32;4.70;99.90
12700;DHT22;6414;49.570;6.060;2024-03-17T03:54:18;4.60;99.90
12700;DHT22;6414;49.570;6.060;2024-03-17T03:57:04;4.40;99.90
12700;DHT22;6414;49.570;6.060;2024-03-17T03:59:50;4.40;99.90
12700;DHT22;6414;49.570;6.060;2024-03-17T04:02:37;4.40;99.90
12700;DHT22;6414;49.570;6.060;2024-03-17T04:05:22;4.50;99.90
12700;DHT22;6414;49.570;6.060;2024-03-17T04:08:09;4.50;99.90
12700;DHT22;6414;49.570;6.060;2024-03-17T04:10:57;4.50;99.90
12700;DHT22;6414;49.570;6.060;2024-03-17T04:13:43;4.50;99.90
12700;DHT22;6414;49.570;6.060;2024-03-17T04:16:30;4.50;99.90
12700;DHT22;6414;49.570;6.060;2024-03-17T04:19:16;4.40;99.90
12700;DHT22;6414;49.570;6.060;2024-03-17T04:22:02;4.40;99.90
12700;DHT22;6414;49.570;6.060;2024-03-17T04:24:48;4.50;99.90
12700;DHT22;6414;49.570;6.060;2024-03-17T04:27:34;4.40;99.90
12700;DHT22;6414;49.570;6.060;2024-03-17T04:30:20;4.40;99.90
12700;DHT22;6414;49.570;6.060;2024-03-17T04:33:06;4.30;99.90
12700;DHT22;6414;49.570;6.060;2024-03-17T04:35:53;4.40;99.90
12700;DHT22;6414;49.570;6.060;2024-03-17T04:38:38;4.40;99.90
12700;DHT22;6414;49.570;6.060;2024-03-17T04:41:24;4.30;99.90
12700;DHT22;6414;49.570;6.060;2024-03-17T04:44:10;4.20;99.90
12700;DHT22;6414;49.570;6.060;2024-03-17T04:46:57;4.30;99.90
12700;DHT22;6414;49.570;6.060;2024-03-17T04:49:43;4.40;99.90
12700;DHT22;6414;49.570;6.060;2024-03-17T04:52:28;4.40;99.90
12700;DHT22;6414;49.570;6.060;2024-03-17T04:55:14;4.40;99.90
12700;DHT22;6414;49.570;6.060;2024-03-17T04:58:01;4.30;99.90
12700;DHT22;6414;49.570;6.060;2024-03-17T05:00:47;4.30;99.90
12700;DHT22;6414;49.570;6.060;2024-03-17T05:03:33;4.50;99.90
12700;DHT22;6414;49.570;6.060;2024-03-17T05:07:36;4.50;99.90
12700;DHT22;6414;49.570;6.060;2024-03-17T05:10:23;4.50;99.90
12700;DHT22;6414;49.570;6.060;2024-03-17T05:13:09;4.50;99.90
12700;DHT22;6414;49.570;6.060;2024-03-17T05:15:55;4.40;99.90
12700;DHT22;6414;49.570;6.060;2024-03-17T05:18:42;4.30;99.90
12700;DHT22;6414;49.570;6.060;2024-03-17T05:21:28;4.30;99.90
12700;DHT22;6414;49.570;6.060;2024-03-17T05:24:14;4.10;99.90
12700;DHT22;6414;49.570;6.060;2024-03-17T05:27:01;4.10;99.90
12700;DHT22;6414;49.570;6.060;2024-03-17T05:29:47;4.10;99.90
12700;DHT22;6414;49.570;6.060;2024-03-17T05:32:33;4.20;99.90
12700;DHT22;6414;49.570;6.060;2024-03-17T05:35:19;4.30;99.90
12700;DHT22;6414;49.570;6.060;2024-03-17T05:38:07;4.20;99.90
12700;DHT22;6414;49.570;6.060;2024-03-17T05:40:54;4.00;99.90
12700;DHT22;6414;49.570;6.060;2024-03-17T05:43:39;4.00;99.90
12700;DHT22;6414;49.570;6.060;2024-03-17T05:46:26;4.00;99.90
12700;DHT22;6414;49.570;6.060;2024-03-17T05:49:11;4.00;99.90
12700;DHT22;6414;49.570;6.060;2024-03-17T05:51:58;4.20;99.90
12700;DHT22;6414;49.570;6.060;2024-03-17T05:54:44;4.20;99.90
12700;DHT22;6414;49.570;6.060;2024-03-17T05:57:30;4.30;99.90
12700;DHT22;6414;49.570;6.060;2024-03-17T06:00:16;4.20;99.90
12700;DHT22;6414;49.570;6.060;2024-03-17T06:03:04;4.40;99.90
12700;DHT22;6414;49.570;6.060;2024-03-17T06:05:49;4.40;99.90
12700;DHT22;6414;49.570;6.060;2024-03-17T06:08:36;4.30;99.90
12700;DHT22;6414;49.570;6.060;2024-03-17T06:11:22;4.30;99.90
12700;DHT22;6414;49.570;6.060;2024-03-17T06:14:09;4.50;99.90
12700;DHT22;6414;49.570;6.060;2024-03-17T06:16:56;4.50;99.90
12700;DHT22;6414;49.570;6.060;2024-03-17T06:19:42;4.40;99.90
12700;DHT22;6414;49.570;6.060;2024-03-17T06:22:29;4.40;99.90
12700;DHT22;6414;49.570;6.060;2024-03-17T06:25:16;4.40;99.90
12700;DHT22;6414;49.570;6.060;2024-03-17T06:28:02;4.40;99.90
12700;DHT22;6414;49.570;6.060;2024-03-17T06:30:58;4.40;99.90
12700;DHT22;6414;49.570;6.060;2024-03-17T06:33:46;4.40;99.90
12700;DHT22;6414;49.570;6.060;2024-03-17T06:36:32;4.40;99.90
12700;DHT22;6414;49.570;6.060;2024-03-17T06:39:18;4.50;99.90
12700;DHT22;6414;49.570;6.060;2024-03-17T06:42:04;4.50;99.90
12700;DHT22;6414;49.570;6.060;2024-03-17T06:44:50;4.60;99.90
12700;DHT22;6414;49.570;6.060;2024-03-17T06:47:36;4.60;99.90
12700;DHT22;6414;49.570;6.060;2024-03-17T06:50:22;4.80;99.90
12700;DHT22;6414;49.570;6.060;2024-03-17T06:53:08;4.80;99.90
12700;DHT22;6414;49.570;6.060;2024-03-17T06:55:57;5.00;99.90
12700;DHT22;6414;49.570;6.060;2024-03-17T06:58:42;5.10;99.90
12700;DHT22;6414;49.570;6.060;2024-03-17T07:01:28;5.20;99.90
12700;DHT22;6414;49.570;6.060;2024-03-17T07:04:14;5.30;99.90
12700;DHT22;6414;49.570;6.060;2024-03-17T07:07:00;5.40;99.90
12700;DHT22;6414;49.570;6.060;2024-03-17T07:09:47;5.50;99.90
12700;DHT22;6414;49.570;6.060;2024-03-17T07:12:33;5.60;99.90
12700;DHT22;6414;49.570;6.060;2024-03-17T07:15:18;5.60;99.90
12700;DHT22;6414;49.570;6.060;2024-03-17T07:18:04;5.70;99.90
12700;DHT22;6414;49.570;6.060;2024-03-17T07:20:51;5.80;99.90
12700;DHT22;6414;49.570;6.060;2024-03-17T07:23:37;5.80;99.90
12700;DHT22;6414;49.570;6.060;2024-03-17T07:26:23;5.80;99.90
12700;DHT22;6414;49.570;6.060;2024-03-17T07:29:09;5.90;99.90
12700;DHT22;6414;49.570;6.060;2024-03-17T07:31:55;6.10;99.90
12700;DHT22;6414;49.570;6.060;2024-03-17T07:34:42;6.20;99.90
12700;DHT22;6414;49.570;6.060;2024-03-17T07:37:28;6.20;99.90
12700;DHT22;6414;49.570;6.060;2024-03-17T07:40:14;6.30;99.90
12700;DHT22;6414;49.570;6.060;2024-03-17T07:43:02;6.30;99.90
12700;DHT22;6414;49.570;6.060;2024-03-17T07:45:59;6.20;99.90
12700;DHT22;6414;49.570;6.060;2024-03-17T07:48:38;6.20;99.90
12700;DHT22;6414;49.570;6.060;2024-03-17T07:51:29;6.20;99.90
12700;DHT22;6414;49.570;6.060;2024-03-17T07:54:15;6.30;99.90
12700;DHT22;6414;49.570;6.060;2024-03-17T07:57:01;6.40;99.90
12700;DHT22;6414;49.570;6.060;2024-03-17T07:59:49;6.50;99.90
12700;DHT22;6414;49.570;6.060;2024-03-17T08:02:33;6.40;99.90
12700;DHT22;6414;49.570;6.060;2024-03-17T08:05:19;6.40;99.90
12700;DHT22;6414;49.570;6.060;2024-03-17T08:08:05;6.50;99.90
12700;DHT22;6414;49.570;6.060;2024-03-17T08:10:51;6.50;99.90
12700;DHT22;6414;49.570;6.060;2024-03-17T08:13:37;6.50;99.90
12700;DHT22;6414;49.570;6.060;2024-03-17T08:16:23;6.60;99.90
12700;DHT22;6414;49.570;6.060;2024-03-17T08:19:09;6.80;99.90
12700;DHT22;6414;49.570;6.060;2024-03-17T08:21:55;6.80;99.90
12700;DHT22;6414;49.570;6.060;2024-03-17T08:24:41;6.90;99.90
12700;DHT22;6414;49.570;6.060;2024-03-17T08:27:27;7.00;99.90
12700;DHT22;6414;49.570;6.060;2024-03-17T08:30:14;7.00;99.90
12700;DHT22;6414;49.570;6.060;2024-03-17T08:33:00;7.20;99.90
12700;DHT22;6414;49.570;6.060;2024-03-17T08:36:04;7.30;99.90
12700;DHT22;6414;49.570;6.060;2024-03-17T08:38:48;7.40;99.90
12700;DHT22;6414;49.570;6.060;2024-03-17T08:41:34;7.40;99.90
12700;DHT22;6414;49.570;6.060;2024-03-17T08:44:21;7.40;99.90
12700;DHT22;6414;49.570;6.060;2024-03-17T08:47:07;7.50;99.90
12700;DHT22;6414;49.570;6.060;2024-03-17T08:49:53;7.60;99.90
12700;DHT22;6414;49.570;6.060;2024-03-17T08:52:39;7.60;99.90
12700;DHT22;6414;49.570;6.060;2024-03-17T08:55:25;8.00;99.90
12700;DHT22;6414;49.570;6.060;2024-03-17T08:58:11;8.10;99.90
12700;DHT22;6414;49.570;6.060;2024-03-17T09:00:58;8.30;99.90
12700;DHT22;6414;49.570;6.060;2024-03-17T09:03:44;8.40;99.90
12700;DHT22;6414;49.570;6.060;2024-03-17T09:06:31;8.40;99.90
12700;DHT22;6414;49.570;6.060;2024-03-17T09:09:18;8.50;99.90
12700;DHT22;6414;49.570;6.060;2024-03-17T09:12:04;8.50;99.90
12700;DHT22;6414;49.570;6.060;2024-03-17T09:14:51;8.10;99.90
12700;DHT22;6414;49.570;6.060;2024-03-17T09:17:37;8.10;99.90
12700;DHT22;6414;49.570;6.060;2024-03-17T09:20:23;8.00;99.90
12700;DHT22;6414;49.570;6.060;2024-03-17T09:23:09;8.00;99.90
12700;DHT22;6414;49.570;6.060;2024-03-17T09:25:59;8.10;99.90
12700;DHT22;6414;49.570;6.060;2024-03-17T09:28:45;7.70;99.90
12700;DHT22;6414;49.570;6.060;2024-03-17T09:31:31;7.70;99.90
12700;DHT22;6414;49.570;6.060;2024-03-17T09:34:16;7.70;99.90
12700;DHT22;6414;49.570;6.060;2024-03-17T09:37:02;7.80;99.90
12700;DHT22;6414;49.570;6.060;2024-03-17T09:39:48;7.80;99.90
12700;DHT22;6414;49.570;6.060;2024-03-17T09:42:34;7.80;99.90
12700;DHT22;6414;49.570;6.060;2024-03-17T09:45:21;7.70;99.90
12700;DHT22;6414;49.570;6.060;2024-03-17T09:48:06;7.70;99.90
12700;DHT22;6414;49.570;6.060;2024-03-17T09:50:53;7.80;99.90
12700;DHT22;6414;49.570;6.060;2024-03-17T09:53:39;8.00;99.90
12700;DHT22;6414;49.570;6.060;2024-03-17T09:56:26;7.90;99.90
12700;DHT22;6414;49.570;6.060;2024-03-17T09:59:12;8.10;99.90
12700;DHT22;6414;49.570;6.060;2024-03-17T10:01:58;8.10;99.90
12700;DHT22;6414;49.570;6.060;2024-03-17T10:04:45;8.00;99.90
12700;DHT22;6414;49.570;6.060;2024-03-17T10:07:38;8.00;99.90
12700;DHT22;6414;49.570;6.060;2024-03-17T10:10:24;7.90;99.90
12700;DHT22;6414;49.570;6.060;2024-03-17T10:13:11;7.80;99.90
12700;DHT22;6414;49.570;6.060;2024-03-17T10:15:56;7.90;99.90
12700;DHT22;6414;49.570;6.060;2024-03-17T10:18:43;8.10;99.90
12700;DHT22;6414;49.570;6.060;2024-03-17T10:21:29;8.20;99.90
12700;DHT22;6414;49.570;6.060;2024-03-17T10:27:01;8.30;99.90
12700;DHT22;6414;49.570;6.060;2024-03-17T10:29:47;8.20;99.90
12700;DHT22;6414;49.570;6.060;2024-03-17T10:32:33;8.20;99.90
12700;DHT22;6414;49.570;6.060;2024-03-17T10:35:29;8.20;99.90
12700;DHT22;6414;49.570;6.060;2024-03-17T10:38:14;8.30;99.90
12700;DHT22;6414;49.570;6.060;2024-03-17T10:41:00;8.40;99.90
12700;DHT22;6414;49.570;6.060;2024-03-17T10:43:46;8.40;99.90
12700;DHT22;6414;49.570;6.060;2024-03-17T10:46:32;8.40;99.90
12700;DHT22;6414;49.570;6.060;2024-03-17T10:49:18;8.50;99.90
12700;DHT22;6414;49.570;6.060;2024-03-17T10:52:05;8.50;99.90
12700;DHT22;6414;49.570;6.060;2024-03-17T10:54:51;8.50;99.90
12700;DHT22;6414;49.570;6.060;2024-03-17T10:57:45;8.60;99.90
12700;DHT22;6414;49.570;6.060;2024-03-17T11:00:28;8.60;99.90
12700;DHT22;6414;49.570;6.060;2024-03-17T11:03:14;8.60;99.90
12700;DHT22;6414;49.570;6.060;2024-03-17T11:06:00;8.90;99.90
12700;DHT22;6414;49.570;6.060;2024-03-17T11:08:46;8.80;99.90
12700;DHT22;6414;49.570;6.060;2024-03-17T11:11:35;8.90;99.90
12700;DHT22;6414;49.570;6.060;2024-03-17T11:14:21;8.80;99.90
12700;DHT22;6414;49.570;6.060;2024-03-17T11:17:18;8.90;99.90
12700;DHT22;6414;49.570;6.060;2024-03-17T11:20:13;8.80;99.90
12700;DHT22;6414;49.570;6.060;2024-03-17T11:22:56;8.90;99.90
12700;DHT22;6414;49.570;6.060;2024-03-17T11:25:49;9.00;99.90
12700;DHT22;6414;49.570;6.060;2024-03-17T11:31:41;9.20;99.90
12700;DHT22;6414;49.570;6.060;2024-03-17T11:34:29;9.30;99.90
12700;DHT22;6414;49.570;6.060;2024-03-17T11:38:01;9.50;99.90
12700;DHT22;6414;49.570;6.060;2024-03-17T11:40:02;9.70;99.90
12700;DHT22;6414;49.570;6.060;2024-03-17T11:43:04;9.70;99.90
12700;DHT22;6414;49.570;6.060;2024-03-17T11:45:54;9.90;99.90
12700;DHT22;6414;49.570;6.060;2024-03-17T11:48:36;10.00;99.90
12700;DHT22;6414;49.570;6.060;2024-03-17T11:51:21;10.40;99.90
12700;DHT22;6414;49.570;6.060;2024-03-17T11:54:08;10.40;99.90
12700;DHT22;6414;49.570;6.060;2024-03-17T11:56:55;10.10;99.90
12700;DHT22;6414;49.570;6.060;2024-03-17T11:59:40;10.20;99.90
12700;DHT22;6414;49.570;6.060;2024-03-17T12:02:29;10.30;99.90
12700;DHT22;6414;49.570;6.060;2024-03-17T12:05:06;10.30;99.90
12700;DHT22;6414;49.570;6.060;2024-03-17T12:07:52;10.30;99.90
12700;DHT22;6414;49.570;6.060;2024-03-17T12:10:46;10.50;99.90
12700;DHT22;6414;49.570;6.060;2024-03-17T12:13:32;10.70;99.90
12700;DHT22;6414;49.570;6.060;2024-03-17T12:16:14;10.70;99.90
12700;DHT22;6414;49.570;6.060;2024-03-17T12:19:07;10.80;99.90
12700;DHT22;6414;49.570;6.060;2024-03-17T12:21:53;10.80;99.90
12700;DHT22;6414;49.570;6.060;2024-03-17T12:24:39;10.70;99.90
12700;DHT22;6414;49.570;6.060;2024-03-17T12:27:25;10.70;99.90
12700;DHT22;6414;49.570;6.060;2024-03-17T12:30:10;10.70;99.90
12700;DHT22;6414;49.570;6.060;2024-03-17T12:32:57;10.70;99.90
12700;DHT22;6414;49.570;6.060;2024-03-17T12:35:43;10.90;99.90
12700;DHT22;6414;49.570;6.060;2024-03-17T12:38:30;10.90;99.90
12700;DHT22;6414;49.570;6.060;2024-03-17T12:41:19;10.90;99.90
12700;DHT22;6414;49.570;6.060;2024-03-17T12:44:05;11.10;99.90
12700;DHT22;6414;49.570;6.060;2024-03-17T12:46:58;11.10;99.90
12700;DHT22;6414;49.570;6.060;2024-03-17T12:49:47;11.60;99.90
12700;DHT22;6414;49.570;6.060;2024-03-17T12:52:33;11.70;99.90
12700;DHT22;6414;49.570;6.060;2024-03-17T12:55:19;11.40;99.90
12700;DHT22;6414;49.570;6.060;2024-03-17T12:58:22;11.70;99.90
12700;DHT22;6414;49.570;6.060;2024-03-17T13:01:27;11.70;99.90
12700;DHT22;6414;49.570;6.060;2024-03-17T13:04:13;11.80;99.90
12700;DHT22;6414;49.570;6.060;2024-03-17T13:06:59;12.00;99.90
12700;DHT22;6414;49.570;6.060;2024-03-17T13:09:45;11.80;99.90
12700;DHT22;6414;49.570;6.060;2024-03-17T13:12:31;12.10;99.90
12700;DHT22;6414;49.570;6.060;2024-03-17T13:15:17;12.00;99.90
12700;DHT22;6414;49.570;6.060;2024-03-17T13:18:07;12.10;99.90
12700;DHT22;6414;49.570;6.060;2024-03-17T13:20:49;12.10;99.90
12700;DHT22;6414;49.570;6.060;2024-03-17T13:23:35;11.90;99.90
12700;DHT22;6414;49.570;6.060;2024-03-17T13:26:21;12.10;99.90
12700;DHT22;6414;49.570;6.060;2024-03-17T13:29:07;12.30;99.90
12700;DHT22;6414;49.570;6.060;2024-03-17T13:31:53;12.10;99.90
12700;DHT22;6414;49.570;6.060;2024-03-17T13:34:39;12.10;99.90
12700;DHT22;6414;49.570;6.060;2024-03-17T13:37:25;12.00;99.90
12700;DHT22;6414;49.570;6.060;2024-03-17T13:40:11;11.90;99.90
12700;DHT22;6414;49.570;6.060;2024-03-17T13:42:57;12.20;99.90
12700;DHT22;6414;49.570;6.060;2024-03-17T13:45:44;11.90;99.90
12700;DHT22;6414;49.570;6.060;2024-03-17T13:48:30;12.10;99.90
12700;DHT22;6414;49.570;6.060;2024-03-17T13:51:15;12.10;99.90
12700;DHT22;6414;49.570;6.060;2024-03-17T13:54:02;11.80;99.90
12700;DHT22;6414;49.570;6.060;2024-03-17T13:56:48;11.80;99.90
12700;DHT22;6414;49.570;6.060;2024-03-17T13:59:35;11.80;99.90
12700;DHT22;6414;49.570;6.060;2024-03-17T14:02:21;11.70;99.90
12700;DHT22;6414;49.570;6.060;2024-03-17T14:05:07;11.80;99.90
12700;DHT22;6414;49.570;6.060;2024-03-17T14:07:53;11.70;99.90
12700;DHT22;6414;49.570;6.060;2024-03-17T14:10:41;11.60;99.90
12700;DHT22;6414;49.570;6.060;2024-03-17T14:13:28;11.60;99.90
12700;DHT22;6414;49.570;6.060;2024-03-17T14:16:14;11.50;99.90
12700;DHT22;6414;49.570;6.060;2024-03-17T14:19:00;11.60;99.90
12700;DHT22;6414;49.570;6.060;2024-03-17T14:21:46;11.60;99.90
12700;DHT22;6414;49.570;6.060;2024-03-17T14:24:33;11.60;99.90
12700;DHT22;6414;49.570;6.060;2024-03-17T14:27:19;11.70;99.90
12700;DHT22;6414;49.570;6.060;2024-03-17T14:30:05;11.90;99.90
12700;DHT22;6414;49.570;6.060;2024-03-17T14:32:51;11.80;99.90
12700;DHT22;6414;49.570;6.060;2024-03-17T14:35:37;11.80;99.90
12700;DHT22;6414;49.570;6.060;2024-03-17T14:38:25;11.90;99.90
12700;DHT22;6414;49.570;6.060;2024-03-17T14:41:11;11.80;99.90
12700;DHT22;6414;49.570;6.060;2024-03-17T14:43:57;11.70;99.90
12700;DHT22;6414;49.570;6.060;2024-03-17T14:46:44;11.80;99.90
12700;DHT22;6414;49.570;6.060;2024-03-17T14:49:32;11.80;99.90
12700;DHT22;6414;49.570;6.060;2024-03-17T14:52:18;11.80;99.90
12700;DHT22;6414;49.570;6.060;2024-03-17T14:55:05;11.80;99.90
12700;DHT22;6414;49.570;6.060;2024-03-17T14:57:51;11.80;99.90
12700;DHT22;6414;49.570;6.060;2024-03-17T15:00:37;11.80;99.90
12700;DHT22;6414;49.570;6.060;2024-03-17T15:03:23;11.80;99.90
12700;DHT22;6414;49.570;6.060;2024-03-17T15:06:11;11.80;99.90
12700;DHT22;6414;49.570;6.060;2024-03-17T15:08:55;11.80;99.90
12700;DHT22;6414;49.570;6.060;2024-03-17T15:11:41;11.70;99.90
12700;DHT22;6414;49.570;6.060;2024-03-17T15:14:28;11.60;99.90
12700;DHT22;6414;49.570;6.060;2024-03-17T15:17:14;11.50;99.90
12700;DHT22;6414;49.570;6.060;2024-03-17T15:20:00;11.60;99.90
12700;DHT22;6414;49.570;6.060;2024-03-17T15:22:48;11.70;99.90
12700;DHT22;6414;49.570;6.060;2024-03-17T15:25:33;11.70;99.90
12700;DHT22;6414;49.570;6.060;2024-03-17T15:28:19;11.60;99.90
12700;DHT22;6414;49.570;6.060;2024-03-17T15:31:11;11.50;99.90
12700;DHT22;6414;49.570;6.060;2024-03-17T15:33:57;11.40;99.90
12700;DHT22;6414;49.570;6.060;2024-03-17T15:36:43;11.40;99.90
12700;DHT22;6414;49.570;6.060;2024-03-17T15:39:30;11.40;99.90
12700;DHT22;6414;49.570;6.060;2024-03-17T15:42:16;11.30;99.90
12700;DHT22;6414;49.570;6.060;2024-03-17T15:45:04;11.20;99.90
12700;DHT22;6414;49.570;6.060;2024-03-17T15:47:50;11.20;99.90
12700;DHT22;6414;49.570;6.060;2024-03-17T15:50:36;11.20;99.90
12700;DHT22;6414;49.570;6.060;2024-03-17T15:53:22;11.20;99.90
12700;DHT22;6414;49.570;6.060;2024-03-17T15:56:08;11.10;99.90
12700;DHT22;6414;49.570;6.060;2024-03-17T15:58:54;11.10;99.90
12700;DHT22;6414;49.570;6.060;2024-03-17T16:01:40;11.00;99.90
12700;DHT22;6414;49.570;6.060;2024-03-17T16:04:26;11.00;99.90
12700;DHT22;6414;49.570;6.060;2024-03-17T16:07:12;11.00;99.90
12700;DHT22;6414;49.570;6.060;2024-03-17T16:09:58;11.00;99.90
12700;DHT22;6414;49.570;6.060;2024-03-17T16:12:45;11.00;99.90
12700;DHT22;6414;49.570;6.060;2024-03-17T16:15:32;11.00;99.90
12700;DHT22;6414;49.570;6.060;2024-03-17T16:18:18;10.90;99.90
12700;DHT22;6414;49.570;6.060;2024-03-17T16:21:08;10.90;99.90
12700;DHT22;6414;49.570;6.060;2024-03-17T16:23:59;10.90;99.90
12700;DHT22;6414;49.570;6.060;2024-03-17T16:26:44;10.90;99.90
12700;DHT22;6414;49.570;6.060;2024-03-17T16:29:34;10.80;99.90
12700;DHT22;6414;49.570;6.060;2024-03-17T16:32:22;10.80;99.90
12700;DHT22;6414;49.570;6.060;2024-03-17T16:35:08;10.80;99.90
12700;DHT22;6414;49.570;6.060;2024-03-17T16:37:54;10.80;99.90
12700;DHT22;6414;49.570;6.060;2024-03-17T16:40:41;10.70;99.90
12700;DHT22;6414;49.570;6.060;2024-03-17T16:49:23;10.70;99.90
12700;DHT22;6414;49.570;6.060;2024-03-17T16:52:08;10.70;99.90
12700;DHT22;6414;49.570;6.060;2024-03-17T16:54:55;10.70;99.90
12700;DHT22;6414;49.570;6.060;2024-03-17T16:57:41;10.60;99.90
12700;DHT22;6414;49.570;6.060;2024-03-17T17:00:26;10.70;99.90
12700;DHT22;6414;49.570;6.060;2024-03-17T17:03:12;10.60;99.90
12700;DHT22;6414;49.570;6.060;2024-03-17T17:05:58;10.60;99.90
12700;DHT22;6414;49.570;6.060;2024-03-17T17:08:44;10.60;99.90
12700;DHT22;6414;49.570;6.060;2024-03-17T17:11:30;10.60;99.90
12700;DHT22;6414;49.570;6.060;2024-03-17T17:14:15;10.50;99.90
12700;DHT22;6414;49.570;6.060;2024-03-17T17:17:03;10.50;99.90
12700;DHT22;6414;49.570;6.060;2024-03-17T17:19:49;10.50;99.90
12700;DHT22;6414;49.570;6.060;2024-03-17T17:22:35;10.40;99.90
12700;DHT22;6414;49.570;6.060;2024-03-17T17:25:22;10.40;99.90
12700;DHT22;6414;49.570;6.060;2024-03-17T17:28:08;10.40;99.90
12700;DHT22;6414;49.570;6.060;2024-03-17T17:30:54;10.30;99.90
12700;DHT22;6414;49.570;6.060;2024-03-17T17:33:40;10.30;99.90
12700;DHT22;6414;49.570;6.060;2024-03-17T17:36:26;10.30;99.90
12700;DHT22;6414;49.570;6.060;2024-03-17T17:39:12;10.20;99.90
12700;DHT22;6414;49.570;6.060;2024-03-17T17:41:58;10.20;99.90
12700;DHT22;6414;49.570;6.060;2024-03-17T17:44:44;10.10;99.90
12700;DHT22;6414;49.570;6.060;2024-03-17T17:47:31;10.10;99.90
12700;DHT22;6414;49.570;6.060;2024-03-17T17:50:17;10.10;99.90
12700;DHT22;6414;49.570;6.060;2024-03-17T17:53:04;10.10;99.90
12700;DHT22;6414;49.570;6.060;2024-03-17T17:55:50;10.10;99.90
12700;DHT22;6414;49.570;6.060;2024-03-17T17:58:36;10.00;99.90
12700;DHT22;6414;49.570;6.060;2024-03-17T18:01:22;10.00;99.90
12700;DHT22;6414;49.570;6.060;2024-03-17T18:04:08;10.10;99.90
12700;DHT22;6414;49.570;6.060;2024-03-17T18:06:54;10.00;99.90
12700;DHT22;6414;49.570;6.060;2024-03-17T18:09:40;10.10;99.90
12700;DHT22;6414;49.570;6.060;2024-03-17T18:12:26;10.10;99.90
12700;DHT22;6414;49.570;6.060;2024-03-17T18:15:12;10.10;99.90